createdAt,value
2024-03-02T00:01:19.920Z,33.70
2024-03-02T00:06:28.785Z,38.92
2024-03-02T00:11:37.320Z,39.33
2024-03-02T00:16:46.138Z,40.70
2024-03-02T00:21:55.277Z,33.45
2024-03-02T00:27:00.685Z,33.22
2024-03-02T00:32:04.918Z,30.58
2024-03-02T00:37:14.057Z,39.08
2024-03-02T00:42:24.900Z,41.60
2024-03-02T00:47:33.910Z,32.13
2024-03-02T00:52:43.141Z,43.10
2024-03-02T00:57:53.304Z,34.53
2024-03-02T01:02:56.980Z,35.90
2024-03-02T01:08:06.385Z,35.35
2024-03-02T01:13:16.501Z,30.10
2024-03-02T01:18:25.431Z,31.88
2024-03-02T01:23:29.108Z,34.65
2024-03-02T01:28:39.105Z,30.33
2024-03-02T01:33:47.848Z,30.88
2024-03-02T01:38:56.511Z,31.02
2024-03-02T01:44:06.734Z,29.85
2024-03-02T01:49:15.527Z,32.90
2024-03-02T01:54:24.602Z,28.45
2024-03-02T01:59:34.832Z,33.17
2024-03-02T02:04:43.713Z,38.05
2024-03-02T02:09:52.424Z,32.58
2024-03-02T02:15:02.701Z,30.92
2024-03-02T02:20:12.232Z,34.45
2024-03-02T02:25:22.302Z,28.20
2024-03-02T02:30:32.094Z,27.52
2024-03-02T02:35:40.797Z,29.23
2024-03-02T02:40:46.068Z,35.00
2024-03-02T02:45:49.986Z,30.75
2024-03-02T02:50:53.660Z,29.25
2024-03-02T02:55:58.693Z,35.60
2024-03-02T03:01:02.561Z,29.98
2024-03-02T03:06:11.424Z,33.42
2024-03-02T03:11:22.307Z,26.60
2024-03-02T03:16:26.563Z,35.95
2024-03-02T03:21:35.321Z,32.42
2024-03-02T03:26:52.630Z,28.58
2024-03-02T03:32:01.310Z,36.95
2024-03-02T03:37:05.265Z,31.38
2024-03-02T03:42:15.371Z,30.38
2024-03-02T03:47:19.056Z,30.95
2024-03-02T03:52:27.689Z,28.08
2024-03-02T03:57:37.756Z,28.20
2024-03-02T04:02:46.433Z,31.83
2024-03-02T04:07:50.223Z,38.80
2024-03-02T04:12:55.380Z,37.67
2024-03-02T04:17:59.206Z,45.25
2024-03-02T04:23:09.224Z,33.08
2024-03-02T04:28:19.186Z,34.13
2024-03-02T04:33:27.854Z,33.60
2024-03-02T04:38:36.754Z,35.53
2024-03-02T04:43:46.789Z,40.33
2024-03-02T04:48:58.360Z,36.88
2024-03-02T04:54:07.171Z,38.63
2024-03-02T04:59:17.325Z,35.75
2024-03-02T05:04:21.067Z,34.58
2024-03-02T05:09:29.713Z,37.30
2024-03-02T05:14:34.720Z,39.63
2024-03-02T05:19:43.387Z,39.10
2024-03-02T05:24:52.158Z,34.50
2024-03-02T05:29:57.405Z,34.22
2024-03-02T05:35:06.975Z,38.42
2024-03-02T05:40:15.893Z,36.63
2024-03-02T05:45:25.973Z,41.83
2024-03-02T05:50:29.801Z,41.80
2024-03-02T05:55:33.576Z,43.97
2024-03-02T06:00:43.769Z,38.95
2024-03-02T06:05:52.997Z,39.78
2024-03-02T06:11:01.713Z,45.97
2024-03-02T06:16:11.780Z,40.58
2024-03-02T06:21:19.584Z,38.00
2024-03-02T06:26:25.790Z,41.38
2024-03-02T06:31:36.389Z,43.85
2024-03-02T06:36:45.250Z,41.67
2024-03-02T06:41:49.192Z,39.03
2024-03-02T06:46:59.209Z,42.88
2024-03-02T06:52:10.985Z,42.90
2024-03-02T06:57:14.980Z,45.30
2024-03-02T07:02:20.269Z,42.95
2024-03-02T07:07:28.907Z,44.05
2024-03-02T07:12:37.769Z,38.90
2024-03-02T07:17:47.755Z,39.35
2024-03-02T07:22:56.346Z,37.38
2024-03-02T07:28:05.568Z,44.67
2024-03-02T07:33:18.015Z,40.10
2024-03-02T07:38:22.391Z,41.78
2024-03-02T07:43:31.064Z,40.70
2024-03-02T07:48:41.129Z,42.05
2024-03-02T07:53:45.712Z,41.00
2024-03-02T07:58:58.443Z,37.78
2024-03-02T08:04:09.608Z,40.85
2024-03-02T08:09:13.383Z,34.55
2024-03-02T08:14:22.035Z,43.03
2024-03-02T08:19:32.119Z,37.40
2024-03-02T08:24:40.877Z,38.08
2024-03-02T08:29:52.010Z,39.95
2024-03-02T08:34:57.081Z,36.90
2024-03-02T08:40:01.358Z,39.63
2024-03-02T08:45:10.982Z,42.65
2024-03-02T08:50:21.002Z,38.83
2024-03-02T08:55:29.960Z,39.25
2024-03-02T09:00:38.822Z,41.20
2024-03-02T09:05:49.028Z,39.58
2024-03-02T09:10:58.492Z,38.38
2024-03-02T09:16:02.285Z,33.08
2024-03-02T09:21:08.557Z,34.95
2024-03-02T09:26:17.833Z,31.27
2024-03-02T09:31:27.741Z,33.95
2024-03-02T09:36:32.758Z,34.17
2024-03-02T09:41:41.980Z,29.15
2024-03-02T09:46:51.345Z,30.98
2024-03-02T09:52:01.709Z,28.83
2024-03-02T09:57:10.807Z,31.43
2024-03-02T10:02:19.903Z,26.13
2024-03-02T10:07:24.969Z,26.98
2024-03-02T10:12:33.732Z,33.97
2024-03-02T10:17:42.498Z,27.40
2024-03-02T10:22:52.659Z,28.13
2024-03-02T10:28:02.112Z,25.40
2024-03-02T10:33:07.922Z,26.33
2024-03-02T10:38:13.872Z,22.60
2024-03-02T10:43:23.185Z,21.42
2024-03-02T10:48:33.664Z,24.77
2024-03-02T10:53:43.831Z,23.43
2024-03-02T10:58:57.593Z,26.70
2024-03-02T11:04:06.757Z,25.95
2024-03-02T11:09:18.517Z,21.33
2024-03-02T11:14:27.579Z,26.00
2024-03-02T11:19:38.023Z,21.60
2024-03-02T11:24:54.948Z,18.13
2024-03-02T11:30:04.481Z,15.45
2024-03-02T11:35:13.117Z,15.52
2024-03-02T11:40:24.179Z,18.50
2024-03-02T11:45:34.978Z,18.27
2024-03-02T11:50:45.455Z,12.32
2024-03-02T11:55:57.610Z,13.50
2024-03-02T12:01:01.465Z,10.95
2024-03-02T12:06:05.918Z,16.00
2024-03-02T12:11:17.339Z,15.05
2024-03-02T12:16:26.117Z,12.50
2024-03-02T12:21:30.019Z,9.82
2024-03-02T12:26:35.130Z,10.43
2024-03-02T12:31:44.450Z,10.85
2024-03-02T12:36:50.804Z,12.23
2024-03-02T12:41:56.432Z,20.70
2024-03-02T12:47:01.741Z,25.13
2024-03-02T12:52:06.910Z,38.20
2024-03-02T12:57:20.700Z,54.83
2024-03-02T13:02:24.366Z,25.45
2024-03-02T13:07:34.763Z,37.28
2024-03-02T13:12:44.937Z,18.98
2024-03-02T13:17:48.787Z,30.00
2024-03-02T13:22:57.573Z,20.63
2024-03-02T13:28:08.918Z,29.70
2024-03-02T13:33:12.861Z,23.85
2024-03-02T13:38:22.702Z,31.02
2024-03-02T13:43:33.606Z,35.15
2024-03-02T13:48:37.726Z,24.58
2024-03-02T13:53:46.432Z,16.63
2024-03-02T13:58:56.504Z,22.85
2024-03-02T14:04:05.675Z,22.73
2024-03-02T14:09:14.417Z,25.20
2024-03-02T14:14:25.499Z,24.50
2024-03-02T14:19:29.449Z,24.30
2024-03-02T14:24:38.285Z,24.73
2024-03-02T14:29:43.456Z,23.60
2024-03-02T14:34:52.173Z,23.40
2024-03-02T14:40:01.055Z,28.73
2024-03-02T14:45:07.499Z,51.40
2024-03-02T14:50:17.822Z,76.43
2024-03-02T14:55:26.686Z,56.93
2024-03-02T15:00:36.847Z,39.58
2024-03-02T15:05:46.841Z,38.22
2024-03-02T15:10:50.871Z,38.88
2024-03-02T15:16:01.147Z,34.65
2024-03-02T15:21:05.380Z,36.22
2024-03-02T15:26:14.229Z,49.42
2024-03-02T15:31:24.332Z,36.17
2024-03-02T15:36:33.151Z,41.25
2024-03-02T15:41:41.900Z,35.63
2024-03-02T15:46:47.142Z,39.92
2024-03-02T15:51:56.129Z,41.05
2024-03-02T15:57:00.277Z,47.50
2024-03-02T16:02:05.991Z,49.30
2024-03-02T16:07:15.333Z,47.97
2024-03-02T16:12:19.213Z,53.03
2024-03-02T16:17:29.248Z,53.75
2024-03-02T16:22:33.005Z,59.85
2024-03-02T16:27:44.688Z,55.90
2024-03-02T16:32:54.994Z,52.67
2024-03-02T16:37:58.670Z,51.67
2024-03-02T16:43:07.816Z,55.40
2024-03-02T16:48:12.968Z,49.85
2024-03-02T16:53:18.398Z,51.75
2024-03-02T16:58:27.091Z,51.33
2024-03-02T17:03:37.349Z,51.20
2024-03-02T17:08:46.579Z,45.22
2024-03-02T17:13:53.427Z,50.70
2024-03-02T17:18:59.076Z,55.88
2024-03-02T17:24:03.794Z,53.13
2024-03-02T17:29:13.161Z,59.22
2024-03-02T17:34:25.013Z,52.28
2024-03-02T17:39:33.733Z,61.00
2024-03-02T17:44:38.060Z,49.97
2024-03-02T17:49:48.242Z,48.85
2024-03-02T17:54:57.076Z,43.03
2024-03-02T18:00:00.867Z,43.75
2024-03-02T18:05:11.993Z,43.72
2024-03-02T18:10:15.778Z,42.47
2024-03-02T18:15:19.528Z,40.67
2024-03-02T18:20:29.596Z,40.25
2024-03-02T18:25:38.418Z,40.28
2024-03-02T18:30:42.283Z,32.67
2024-03-02T18:35:52.524Z,35.90
2024-03-02T18:41:01.330Z,35.83
2024-03-02T18:46:12.075Z,33.67
2024-03-02T18:51:24.286Z,34.00
2024-03-02T18:56:28.029Z,34.45
2024-03-02T19:01:31.872Z,30.65
2024-03-02T19:06:41.900Z,35.15
2024-03-02T19:11:45.694Z,30.08
2024-03-02T19:16:54.589Z,25.58
2024-03-02T19:22:10.913Z,28.52
2024-03-02T19:27:20.583Z,22.90
2024-03-02T19:32:30.321Z,26.00
2024-03-02T19:37:37.179Z,25.23
2024-03-02T19:42:47.664Z,22.42
2024-03-02T19:47:51.654Z,22.08
2024-03-02T19:53:03.940Z,29.88
2024-03-02T19:58:07.655Z,27.50
2024-03-02T20:03:16.385Z,26.50
2024-03-02T20:08:27.487Z,21.45
2024-03-02T20:13:36.386Z,23.75
2024-03-02T20:18:40.039Z,23.42
2024-03-02T20:23:50.255Z,20.45
2024-03-02T20:28:58.967Z,22.63
2024-03-02T20:34:07.788Z,20.77
2024-03-02T20:39:18.697Z,24.08
2024-03-02T20:44:27.568Z,22.45
2024-03-02T20:49:32.164Z,18.60
2024-03-02T20:54:42.272Z,20.02
2024-03-02T20:59:46.209Z,20.50
2024-03-02T21:04:49.951Z,27.00
2024-03-02T21:09:59.940Z,18.70
2024-03-02T21:15:09.400Z,19.60
2024-03-02T21:20:18.283Z,24.92
2024-03-02T21:25:28.561Z,24.25
2024-03-02T21:30:37.660Z,19.75
2024-03-02T21:35:41.630Z,23.70
2024-03-02T21:40:46.710Z,18.15
2024-03-02T21:45:50.387Z,19.63
2024-03-02T21:50:59.076Z,21.45
2024-03-02T21:56:04.338Z,27.13
2024-03-02T22:01:08.299Z,26.58
2024-03-02T22:06:17.906Z,24.02
2024-03-02T22:11:28.162Z,21.40
2024-03-02T22:16:36.908Z,21.40
2024-03-02T22:21:45.874Z,21.27
2024-03-02T22:26:51.063Z,21.67
2024-03-02T22:31:54.890Z,25.65
2024-03-02T22:36:58.747Z,22.88
2024-03-02T22:42:08.905Z,20.83
2024-03-02T22:47:17.679Z,21.77
2024-03-02T22:52:26.325Z,20.02
2024-03-02T22:57:31.614Z,19.33
2024-03-02T23:02:40.288Z,19.63
2024-03-02T23:07:43.932Z,23.02
2024-03-02T23:12:54.131Z,25.88
2024-03-02T23:18:02.866Z,20.27
2024-03-02T23:23:11.535Z,25.70
2024-03-02T23:28:17.654Z,34.03
2024-03-02T23:33:21.800Z,23.98
2024-03-02T23:38:30.444Z,32.63
2024-03-02T23:43:40.861Z,28.73
2024-03-02T23:48:44.580Z,28.88
2024-03-02T23:53:48.351Z,27.80
2024-03-02T23:58:58.925Z,26.30
